sensor_id;sensor_type;location;lat;lon;timestamp;temperature;humidity
26907;DHT22;14472;56.880;16.658;2023-05-10T00:02:06;11.30;1.00
26907;DHT22;14472;56.880;16.658;2023-05-10T00:04:32;11.20;1.00
26907;DHT22;14472;56.880;16.658;2023-05-10T00:06:58;11.20;1.00
26907;DHT22;14472;56.880;16.658;2023-05-10T00:09:24;11.20;1.00
26907;DHT22;14472;56.880;16.658;2023-05-10T00:11:50;11.10;1.00
26907;DHT22;14472;56.880;16.658;2023-05-10T00:14:16;11.20;1.00
26907;DHT22;14472;56.880;16.658;2023-05-10T00:16:42;11.10;1.00
26907;DHT22;14472;56.880;16.658;2023-05-10T00:19:08;11.10;1.00
26907;DHT22;14472;56.880;16.658;2023-05-10T00:21:34;11.10;1.00
26907;DHT22;14472;56.880;16.658;2023-05-10T00:24:00;11.10;1.00
26907;DHT22;14472;56.880;16.658;2023-05-10T00:26:25;11.10;1.00
26907;DHT22;14472;56.880;16.658;2023-05-10T00:28:51;11.10;1.00
26907;DHT22;14472;56.880;16.658;2023-05-10T00:31:17;11.10;1.00
26907;DHT22;14472;56.880;16.658;2023-05-10T00:33:43;11.10;1.00
26907;DHT22;14472;56.880;16.658;2023-05-10T00:36:08;11.10;1.00
26907;DHT22;14472;56.880;16.658;2023-05-10T00:38:34;11.10;1.00
26907;DHT22;14472;56.880;16.658;2023-05-10T00:41:00;11.10;1.00
26907;DHT22;14472;56.880;16.658;2023-05-10T00:43:26;11.00;1.00
26907;DHT22;14472;56.880;16.658;2023-05-10T00:45:52;11.00;1.00
26907;DHT22;14472;56.880;16.658;2023-05-10T00:48:18;11.00;1.00
26907;DHT22;14472;56.880;16.658;2023-05-10T00:50:45;11.00;1.00
26907;DHT22;14472;56.880;16.658;2023-05-10T00:53:11;10.90;1.00
26907;DHT22;14472;56.880;16.658;2023-05-10T00:55:37;10.90;1.00
26907;DHT22;14472;56.880;16.658;2023-05-10T00:58:04;10.90;1.00
26907;DHT22;14472;56.880;16.658;2023-05-10T01:00:30;10.90;1.00
26907;DHT22;14472;56.880;16.658;2023-05-10T01:02:56;10.90;1.00
26907;DHT22;14472;56.880;16.658;2023-05-10T01:05:21;10.80;1.00
26907;DHT22;14472;56.880;16.658;2023-05-10T01:07:47;10.80;1.00
26907;DHT22;14472;56.880;16.658;2023-05-10T01:10:13;10.80;1.00
26907;DHT22;14472;56.880;16.658;2023-05-10T01:12:44;10.80;1.00
26907;DHT22;14472;56.880;16.658;2023-05-10T01:15:11;10.70;1.00
26907;DHT22;14472;56.880;16.658;2023-05-10T01:17:39;10.70;1.00
26907;DHT22;14472;56.880;16.658;2023-05-10T01:20:07;10.70;1.00
26907;DHT22;14472;56.880;16.658;2023-05-10T01:31:39;10.70;1.00
26907;DHT22;14472;56.880;16.658;2023-05-10T01:34:01;10.60;1.00
26907;DHT22;14472;56.880;16.658;2023-05-10T01:36:32;10.60;1.00
26907;DHT22;14472;56.880;16.658;2023-05-10T01:39:16;10.60;1.00
26907;DHT22;14472;56.880;16.658;2023-05-10T01:47:09;10.60;1.00
26907;DHT22;14472;56.880;16.658;2023-05-10T01:50:03;10.60;1.00
26907;DHT22;14472;56.880;16.658;2023-05-10T01:52:37;10.50;1.00
26907;DHT22;14472;56.880;16.658;2023-05-10T01:55:06;10.50;1.00
26907;DHT22;14472;56.880;16.658;2023-05-10T01:57:35;10.50;1.00
26907;DHT22;14472;56.880;16.658;2023-05-10T02:00:03;10.40;1.00
26907;DHT22;14472;56.880;16.658;2023-05-10T02:02:31;10.40;1.00
26907;DHT22;14472;56.880;16.658;2023-05-10T02:04:59;10.40;1.00
26907;DHT22;14472;56.880;16.658;2023-05-10T02:07:26;10.40;1.00
26907;DHT22;14472;56.880;16.658;2023-05-10T02:09:54;10.40;1.00
26907;DHT22;14472;56.880;16.658;2023-05-10T02:12:21;10.30;1.00
26907;DHT22;14472;56.880;16.658;2023-05-10T02:14:48;10.30;1.00
26907;DHT22;14472;56.880;16.658;2023-05-10T02:17:14;10.30;1.00
26907;DHT22;14472;56.880;16.658;2023-05-10T02:19:42;10.30;1.00
26907;DHT22;14472;56.880;16.658;2023-05-10T02:22:09;10.30;1.00
26907;DHT22;14472;56.880;16.658;2023-05-10T02:24:36;10.20;1.00
26907;DHT22;14472;56.880;16.658;2023-05-10T02:27:03;10.30;1.00
26907;DHT22;14472;56.880;16.658;2023-05-10T02:29:31;10.20;1.00
26907;DHT22;14472;56.880;16.658;2023-05-10T02:31:58;10.20;1.00
26907;DHT22;14472;56.880;16.658;2023-05-10T02:34:28;10.20;1.00
26907;DHT22;14472;56.880;16.658;2023-05-10T02:36:56;10.20;1.00
26907;DHT22;14472;56.880;16.658;2023-05-10T02:39:22;10.20;1.00
26907;DHT22;14472;56.880;16.658;2023-05-10T02:41:50;10.20;1.00
26907;DHT22;14472;56.880;16.658;2023-05-10T02:44:18;10.20;1.00
26907;DHT22;14472;56.880;16.658;2023-05-10T02:46:45;10.10;1.00
26907;DHT22;14472;56.880;16.658;2023-05-10T02:49:11;10.10;1.00
26907;DHT22;14472;56.880;16.658;2023-05-10T02:51:41;10.10;1.00
26907;DHT22;14472;56.880;16.658;2023-05-10T02:54:20;10.10;1.00
26907;DHT22;14472;56.880;16.658;2023-05-10T02:56:57;10.10;1.00
26907;DHT22;14472;56.880;16.658;2023-05-10T02:59:23;10.00;1.00
26907;DHT22;14472;56.880;16.658;2023-05-10T03:01:49;10.00;1.00
26907;DHT22;14472;56.880;16.658;2023-05-10T03:04:15;10.00;1.00
26907;DHT22;14472;56.880;16.658;2023-05-10T03:06:41;10.10;1.00
26907;DHT22;14472;56.880;16.658;2023-05-10T03:09:07;10.00;1.00
26907;DHT22;14472;56.880;16.658;2023-05-10T03:14:26;10.00;1.00
26907;DHT22;14472;56.880;16.658;2023-05-10T03:17:41;10.10;1.00
26907;DHT22;14472;56.880;16.658;2023-05-10T03:20:08;10.00;1.00
26907;DHT22;14472;56.880;16.658;2023-05-10T03:22:44;10.10;1.00
26907;DHT22;14472;56.880;16.658;2023-05-10T03:25:11;10.10;1.00
26907;DHT22;14472;56.880;16.658;2023-05-10T03:27:40;10.10;1.00
26907;DHT22;14472;56.880;16.658;2023-05-10T03:30:12;10.10;1.00
26907;DHT22;14472;56.880;16.658;2023-05-10T03:32:38;10.10;1.00
26907;DHT22;14472;56.880;16.658;2023-05-10T03:35:11;10.10;1.00
26907;DHT22;14472;56.880;16.658;2023-05-10T03:37:38;10.20;1.00
26907;DHT22;14472;56.880;16.658;2023-05-10T03:40:05;10.20;1.00
26907;DHT22;14472;56.880;16.658;2023-05-10T03:42:31;10.20;1.00
26907;DHT22;14472;56.880;16.658;2023-05-10T03:44:57;10.20;1.00
26907;DHT22;14472;56.880;16.658;2023-05-10T03:47:22;10.20;1.00
26907;DHT22;14472;56.880;16.658;2023-05-10T03:49:48;10.20;1.00
26907;DHT22;14472;56.880;16.658;2023-05-10T03:52:14;10.30;1.00
26907;DHT22;14472;56.880;16.658;2023-05-10T03:54:39;10.30;1.00
26907;DHT22;14472;56.880;16.658;2023-05-10T03:57:05;10.30;1.00
26907;DHT22;14472;56.880;16.658;2023-05-10T03:59:31;10.40;1.00
26907;DHT22;14472;56.880;16.658;2023-05-10T04:01:56;10.40;1.00
26907;DHT22;14472;56.880;16.658;2023-05-10T04:04:22;10.40;1.00
26907;DHT22;14472;56.880;16.658;2023-05-10T04:06:48;10.40;1.00
26907;DHT22;14472;56.880;16.658;2023-05-10T04:09:14;10.50;1.00
26907;DHT22;14472;56.880;16.658;2023-05-10T04:11:40;10.50;1.00
26907;DHT22;14472;56.880;16.658;2023-05-10T04:14:06;10.60;1.00
26907;DHT22;14472;56.880;16.658;2023-05-10T04:16:32;10.60;1.00
26907;DHT22;14472;56.880;16.658;2023-05-10T04:18:57;10.60;1.00
26907;DHT22;14472;56.880;16.658;2023-05-10T04:21:23;10.70;1.00
26907;DHT22;14472;56.880;16.658;2023-05-10T04:23:49;10.70;1.00
26907;DHT22;14472;56.880;16.658;2023-05-10T04:26:15;10.70;1.00
26907;DHT22;14472;56.880;16.658;2023-05-10T04:28:41;10.80;1.00
26907;DHT22;14472;56.880;16.658;2023-05-10T04:31:08;10.80;1.00
26907;DHT22;14472;56.880;16.658;2023-05-10T04:33:34;10.90;1.00
26907;DHT22;14472;56.880;16.658;2023-05-10T04:36:01;10.90;1.00
26907;DHT22;14472;56.880;16.658;2023-05-10T04:38:27;11.00;1.00
26907;DHT22;14472;56.880;16.658;2023-05-10T04:40:53;11.00;1.00
26907;DHT22;14472;56.880;16.658;2023-05-10T04:43:19;11.00;1.00
26907;DHT22;14472;56.880;16.658;2023-05-10T04:45:45;11.10;1.00
26907;DHT22;14472;56.880;16.658;2023-05-10T04:48:11;11.20;1.00
26907;DHT22;14472;56.880;16.658;2023-05-10T04:50:37;11.20;1.00
26907;DHT22;14472;56.880;16.658;2023-05-10T04:53:04;11.20;1.00
26907;DHT22;14472;56.880;16.658;2023-05-10T04:55:30;11.30;1.00
26907;DHT22;14472;56.880;16.658;2023-05-10T04:57:55;11.30;1.00
26907;DHT22;14472;56.880;16.658;2023-05-10T05:00:23;11.40;1.00
26907;DHT22;14472;56.880;16.658;2023-05-10T05:02:49;11.50;1.00
26907;DHT22;14472;56.880;16.658;2023-05-10T05:05:14;11.60;1.00
26907;DHT22;14472;56.880;16.658;2023-05-10T05:07:40;11.60;1.00
26907;DHT22;14472;56.880;16.658;2023-05-10T05:10:07;11.70;1.00
26907;DHT22;14472;56.880;16.658;2023-05-10T05:12:34;11.80;1.00
26907;DHT22;14472;56.880;16.658;2023-05-10T05:15:00;11.80;1.00
26907;DHT22;14472;56.880;16.658;2023-05-10T05:17:25;11.90;1.00
26907;DHT22;14472;56.880;16.658;2023-05-10T05:19:51;11.90;1.00
26907;DHT22;14472;56.880;16.658;2023-05-10T05:22:17;12.00;1.00
26907;DHT22;14472;56.880;16.658;2023-05-10T05:24:45;12.10;1.00
26907;DHT22;14472;56.880;16.658;2023-05-10T05:27:11;12.10;1.00
26907;DHT22;14472;56.880;16.658;2023-05-10T05:29:36;12.20;1.00
26907;DHT22;14472;56.880;16.658;2023-05-10T05:32:02;12.20;1.00
26907;DHT22;14472;56.880;16.658;2023-05-10T05:34:28;12.30;1.00
26907;DHT22;14472;56.880;16.658;2023-05-10T05:36:54;12.40;1.00
26907;DHT22;14472;56.880;16.658;2023-05-10T05:39:20;12.40;1.00
26907;DHT22;14472;56.880;16.658;2023-05-10T05:41:45;12.40;1.00
26907;DHT22;14472;56.880;16.658;2023-05-10T05:44:12;12.50;1.00
26907;DHT22;14472;56.880;16.658;2023-05-10T05:46:38;12.60;1.00
26907;DHT22;14472;56.880;16.658;2023-05-10T05:49:04;12.60;1.00
26907;DHT22;14472;56.880;16.658;2023-05-10T05:51:30;12.70;1.00
26907;DHT22;14472;56.880;16.658;2023-05-10T05:53:56;12.70;1.00
26907;DHT22;14472;56.880;16.658;2023-05-10T05:56:22;12.80;1.00
26907;DHT22;14472;56.880;16.658;2023-05-10T05:58:52;12.90;1.00
26907;DHT22;14472;56.880;16.658;2023-05-10T06:01:18;12.90;1.00
26907;DHT22;14472;56.880;16.658;2023-05-10T06:03:44;12.90;1.00
26907;DHT22;14472;56.880;16.658;2023-05-10T06:06:10;12.90;1.00
26907;DHT22;14472;56.880;16.658;2023-05-10T06:08:35;13.00;1.00
26907;DHT22;14472;56.880;16.658;2023-05-10T06:11:01;13.10;1.00
26907;DHT22;14472;56.880;16.658;2023-05-10T06:13:27;13.10;1.00
26907;DHT22;14472;56.880;16.658;2023-05-10T06:15:58;13.10;1.00
26907;DHT22;14472;56.880;16.658;2023-05-10T06:18:24;13.20;1.00
26907;DHT22;14472;56.880;16.658;2023-05-10T06:20:50;13.20;1.00
26907;DHT22;14472;56.880;16.658;2023-05-10T06:23:16;13.30;1.00
26907;DHT22;14472;56.880;16.658;2023-05-10T06:25:41;13.30;1.00
26907;DHT22;14472;56.880;16.658;2023-05-10T06:28:07;13.40;1.00
26907;DHT22;14472;56.880;16.658;2023-05-10T06:30:33;13.40;1.00
26907;DHT22;14472;56.880;16.658;2023-05-10T06:32:59;13.40;1.00
26907;DHT22;14472;56.880;16.658;2023-05-10T06:35:24;13.50;1.00
26907;DHT22;14472;56.880;16.658;2023-05-10T06:37:50;13.50;1.00
26907;DHT22;14472;56.880;16.658;2023-05-10T06:40:17;13.60;1.00
26907;DHT22;14472;56.880;16.658;2023-05-10T06:42:43;13.70;1.00
26907;DHT22;14472;56.880;16.658;2023-05-10T06:45:10;13.70;1.00
26907;DHT22;14472;56.880;16.658;2023-05-10T06:47:36;13.80;1.00
26907;DHT22;14472;56.880;16.658;2023-05-10T06:50:02;13.80;1.00
26907;DHT22;14472;56.880;16.658;2023-05-10T06:52:28;13.90;1.00
26907;DHT22;14472;56.880;16.658;2023-05-10T06:54:54;13.90;1.00
26907;DHT22;14472;56.880;16.658;2023-05-10T06:57:20;14.00;1.00
26907;DHT22;14472;56.880;16.658;2023-05-10T06:59:46;14.10;1.00
26907;DHT22;14472;56.880;16.658;2023-05-10T07:02:12;14.10;1.00
26907;DHT22;14472;56.880;16.658;2023-05-10T07:04:40;14.10;1.00
26907;DHT22;14472;56.880;16.658;2023-05-10T07:07:05;14.20;1.00
26907;DHT22;14472;56.880;16.658;2023-05-10T07:09:31;14.30;1.00
26907;DHT22;14472;56.880;16.658;2023-05-10T07:11:57;14.40;1.00
26907;DHT22;14472;56.880;16.658;2023-05-10T07:14:23;14.40;1.00
26907;DHT22;14472;56.880;16.658;2023-05-10T07:16:49;14.50;1.00
26907;DHT22;14472;56.880;16.658;2023-05-10T07:19:15;14.50;1.00
26907;DHT22;14472;56.880;16.658;2023-05-10T07:21:40;14.50;1.00
26907;DHT22;14472;56.880;16.658;2023-05-10T07:24:08;14.60;1.00
26907;DHT22;14472;56.880;16.658;2023-05-10T07:26:34;14.70;1.00
26907;DHT22;14472;56.880;16.658;2023-05-10T07:29:00;14.70;1.00
26907;DHT22;14472;56.880;16.658;2023-05-10T07:31:26;14.80;1.00
26907;DHT22;14472;56.880;16.658;2023-05-10T07:33:52;14.90;1.00
26907;DHT22;14472;56.880;16.658;2023-05-10T07:36:18;15.00;1.00
26907;DHT22;14472;56.880;16.658;2023-05-10T07:38:43;15.00;1.00
26907;DHT22;14472;56.880;16.658;2023-05-10T07:41:10;15.10;1.00
26907;DHT22;14472;56.880;16.658;2023-05-10T07:43:36;15.10;1.00
26907;DHT22;14472;56.880;16.658;2023-05-10T07:46:02;15.20;1.00
26907;DHT22;14472;56.880;16.658;2023-05-10T07:48:28;15.20;1.00
26907;DHT22;14472;56.880;16.658;2023-05-10T07:50:54;15.30;1.00
26907;DHT22;14472;56.880;16.658;2023-05-10T07:53:19;15.40;1.00
26907;DHT22;14472;56.880;16.658;2023-05-10T07:55:50;15.40;1.00
26907;DHT22;14472;56.880;16.658;2023-05-10T07:58:17;15.50;1.00
26907;DHT22;14472;56.880;16.658;2023-05-10T08:00:43;15.50;1.00
26907;DHT22;14472;56.880;16.658;2023-05-10T08:03:09;15.50;1.00
26907;DHT22;14472;56.880;16.658;2023-05-10T08:05:34;15.50;1.00
26907;DHT22;14472;56.880;16.658;2023-05-10T08:08:00;15.50;1.00
26907;DHT22;14472;56.880;16.658;2023-05-10T08:10:26;15.60;1.00
26907;DHT22;14472;56.880;16.658;2023-05-10T08:12:52;15.60;1.00
26907;DHT22;14472;56.880;16.658;2023-05-10T08:15:18;15.60;1.00
26907;DHT22;14472;56.880;16.658;2023-05-10T08:17:43;15.60;1.00
26907;DHT22;14472;56.880;16.658;2023-05-10T08:20:09;15.60;1.00
26907;DHT22;14472;56.880;16.658;2023-05-10T08:22:35;15.60;1.00
26907;DHT22;14472;56.880;16.658;2023-05-10T08:25:01;15.60;1.00
26907;DHT22;14472;56.880;16.658;2023-05-10T08:27:27;15.80;1.00
26907;DHT22;14472;56.880;16.658;2023-05-10T08:29:52;15.80;1.00
26907;DHT22;14472;56.880;16.658;2023-05-10T08:32:19;15.90;1.00
26907;DHT22;14472;56.880;16.658;2023-05-10T08:34:45;15.90;1.00
26907;DHT22;14472;56.880;16.658;2023-05-10T08:37:16;16.10;1.00
26907;DHT22;14472;56.880;16.658;2023-05-10T08:39:43;16.10;1.00
26907;DHT22;14472;56.880;16.658;2023-05-10T08:42:11;16.20;1.00
26907;DHT22;14472;56.880;16.658;2023-05-10T08:44:37;16.20;1.00
26907;DHT22;14472;56.880;16.658;2023-05-10T08:47:05;16.20;1.00
26907;DHT22;14472;56.880;16.658;2023-05-10T08:49:32;16.20;1.00
26907;DHT22;14472;56.880;16.658;2023-05-10T08:52:02;16.20;1.00
26907;DHT22;14472;56.880;16.658;2023-05-10T08:54:31;16.20;1.00
26907;DHT22;14472;56.880;16.658;2023-05-10T08:56:57;16.30;1.00
26907;DHT22;14472;56.880;16.658;2023-05-10T08:59:22;16.20;1.00
26907;DHT22;14472;56.880;16.658;2023-05-10T09:01:49;16.20;1.00
26907;DHT22;14472;56.880;16.658;2023-05-10T09:04:15;16.10;1.00
26907;DHT22;14472;56.880;16.658;2023-05-10T09:06:41;16.10;1.00
26907;DHT22;14472;56.880;16.658;2023-05-10T09:09:07;16.20;1.00
26907;DHT22;14472;56.880;16.658;2023-05-10T09:11:33;16.20;1.00
26907;DHT22;14472;56.880;16.658;2023-05-10T09:13:59;16.20;1.00
26907;DHT22;14472;56.880;16.658;2023-05-10T09:16:25;16.30;1.00
26907;DHT22;14472;56.880;16.658;2023-05-10T09:18:51;16.30;1.00
26907;DHT22;14472;56.880;16.658;2023-05-10T09:21:16;16.40;1.00
26907;DHT22;14472;56.880;16.658;2023-05-10T09:23:45;16.40;1.00
26907;DHT22;14472;56.880;16.658;2023-05-10T09:26:12;16.40;1.00
26907;DHT22;14472;56.880;16.658;2023-05-10T09:29:13;16.50;1.00
26907;DHT22;14472;56.880;16.658;2023-05-10T09:31:46;16.50;1.00
26907;DHT22;14472;56.880;16.658;2023-05-10T09:34:19;16.40;1.00
26907;DHT22;14472;56.880;16.658;2023-05-10T09:36:55;16.40;1.00
26907;DHT22;14472;56.880;16.658;2023-05-10T09:39:33;16.50;1.00
26907;DHT22;14472;56.880;16.658;2023-05-10T09:42:01;16.50;1.00
26907;DHT22;14472;56.880;16.658;2023-05-10T09:44:29;16.50;1.00
26907;DHT22;14472;56.880;16.658;2023-05-10T09:46:55;16.60;1.00
26907;DHT22;14472;56.880;16.658;2023-05-10T09:49:21;16.60;1.00
26907;DHT22;14472;56.880;16.658;2023-05-10T09:51:47;16.70;1.00
26907;DHT22;14472;56.880;16.658;2023-05-10T09:54:22;16.70;1.00
26907;DHT22;14472;56.880;16.658;2023-05-10T09:56:49;16.70;1.00
26907;DHT22;14472;56.880;16.658;2023-05-10T09:59:15;16.60;1.00
26907;DHT22;14472;56.880;16.658;2023-05-10T10:01:43;16.60;1.00
26907;DHT22;14472;56.880;16.658;2023-05-10T10:04:14;16.60;1.00
26907;DHT22;14472;56.880;16.658;2023-05-10T10:06:40;16.60;1.00
26907;DHT22;14472;56.880;16.658;2023-05-10T10:09:07;16.60;1.00
26907;DHT22;14472;56.880;16.658;2023-05-10T10:11:35;16.50;1.00
26907;DHT22;14472;56.880;16.658;2023-05-10T10:14:02;16.60;1.00
26907;DHT22;14472;56.880;16.658;2023-05-10T10:16:29;16.50;1.00
26907;DHT22;14472;56.880;16.658;2023-05-10T10:18:56;16.60;1.00
26907;DHT22;14472;56.880;16.658;2023-05-10T10:21:23;16.60;1.00
26907;DHT22;14472;56.880;16.658;2023-05-10T10:23:49;16.60;1.00
26907;DHT22;14472;56.880;16.658;2023-05-10T10:26:16;16.50;1.00
26907;DHT22;14472;56.880;16.658;2023-05-10T10:31:46;16.40;1.00
26907;DHT22;14472;56.880;16.658;2023-05-10T10:34:26;16.40;1.00
26907;DHT22;14472;56.880;16.658;2023-05-10T10:36:56;16.40;1.00
26907;DHT22;14472;56.880;16.658;2023-05-10T10:39:23;16.40;1.00
26907;DHT22;14472;56.880;16.658;2023-05-10T10:41:52;16.40;1.00
26907;DHT22;14472;56.880;16.658;2023-05-10T10:47:01;16.50;1.00
26907;DHT22;14472;56.880;16.658;2023-05-10T10:49:30;16.50;1.00
26907;DHT22;14472;56.880;16.658;2023-05-10T10:52:23;16.50;1.00
26907;DHT22;14472;56.880;16.658;2023-05-10T10:54:57;16.60;1.00
26907;DHT22;14472;56.880;16.658;2023-05-10T10:57:24;16.50;1.00
26907;DHT22;14472;56.880;16.658;2023-05-10T10:59:53;16.50;1.00
26907;DHT22;14472;56.880;16.658;2023-05-10T11:02:48;16.50;1.00
26907;DHT22;14472;56.880;16.658;2023-05-10T11:10:35;16.50;1.00
26907;DHT22;14472;56.880;16.658;2023-05-10T11:13:06;16.50;1.00
26907;DHT22;14472;56.880;16.658;2023-05-10T11:15:37;16.50;1.00
26907;DHT22;14472;56.880;16.658;2023-05-10T11:18:24;16.50;1.00
26907;DHT22;14472;56.880;16.658;2023-05-10T11:21:01;16.70;1.00
26907;DHT22;14472;56.880;16.658;2023-05-10T11:26:12;16.80;1.00
26907;DHT22;14472;56.880;16.658;2023-05-10T11:28:43;16.90;1.00
26907;DHT22;14472;56.880;16.658;2023-05-10T11:31:10;16.90;1.00
26907;DHT22;14472;56.880;16.658;2023-05-10T11:33:49;16.80;1.00
26907;DHT22;14472;56.880;16.658;2023-05-10T11:38:43;16.80;1.00
26907;DHT22;14472;56.880;16.658;2023-05-10T11:41:10;16.80;1.00
26907;DHT22;14472;56.880;16.658;2023-05-10T11:43:40;16.80;1.00
26907;DHT22;14472;56.880;16.658;2023-05-10T11:46:10;16.70;1.00
26907;DHT22;14472;56.880;16.658;2023-05-10T11:48:39;16.70;1.00
26907;DHT22;14472;56.880;16.658;2023-05-10T11:51:06;16.80;1.00
26907;DHT22;14472;56.880;16.658;2023-05-10T11:53:32;16.80;1.00
26907;DHT22;14472;56.880;16.658;2023-05-10T11:56:09;16.70;1.00
26907;DHT22;14472;56.880;16.658;2023-05-10T11:58:39;16.80;1.00
26907;DHT22;14472;56.880;16.658;2023-05-10T12:01:07;16.80;1.00
26907;DHT22;14472;56.880;16.658;2023-05-10T12:03:34;16.80;1.00
26907;DHT22;14472;56.880;16.658;2023-05-10T12:06:02;16.80;1.00
26907;DHT22;14472;56.880;16.658;2023-05-10T12:08:29;16.70;1.00
26907;DHT22;14472;56.880;16.658;2023-05-10T12:11:06;16.80;1.00
26907;DHT22;14472;56.880;16.658;2023-05-10T12:13:32;16.90;1.00
26907;DHT22;14472;56.880;16.658;2023-05-10T12:15:58;16.90;1.00
26907;DHT22;14472;56.880;16.658;2023-05-10T12:18:24;16.90;1.00
26907;DHT22;14472;56.880;16.658;2023-05-10T12:20:53;16.80;1.00
26907;DHT22;14472;56.880;16.658;2023-05-10T12:23:20;16.80;1.00
26907;DHT22;14472;56.880;16.658;2023-05-10T12:25:46;16.90;1.00
26907;DHT22;14472;56.880;16.658;2023-05-10T12:28:12;16.80;1.00
26907;DHT22;14472;56.880;16.658;2023-05-10T12:30:38;16.90;1.00
26907;DHT22;14472;56.880;16.658;2023-05-10T12:33:12;16.80;1.00
26907;DHT22;14472;56.880;16.658;2023-05-10T12:35:48;16.70;1.00
26907;DHT22;14472;56.880;16.658;2023-05-10T12:41:01;16.70;1.00
26907;DHT22;14472;56.880;16.658;2023-05-10T12:43:27;16.70;1.00
26907;DHT22;14472;56.880;16.658;2023-05-10T12:45:53;16.80;1.00
26907;DHT22;14472;56.880;16.658;2023-05-10T12:48:19;16.80;1.00
26907;DHT22;14472;56.880;16.658;2023-05-10T12:50:45;16.80;1.00
26907;DHT22;14472;56.880;16.658;2023-05-10T12:53:12;16.80;1.00
26907;DHT22;14472;56.880;16.658;2023-05-10T12:55:39;16.90;1.00
26907;DHT22;14472;56.880;16.658;2023-05-10T12:58:05;17.00;1.00
26907;DHT22;14472;56.880;16.658;2023-05-10T13:00:31;17.00;1.00
26907;DHT22;14472;56.880;16.658;2023-05-10T13:02:56;17.00;1.00
26907;DHT22;14472;56.880;16.658;2023-05-10T13:05:24;17.10;1.00
26907;DHT22;14472;56.880;16.658;2023-05-10T13:07:50;17.10;1.00
26907;DHT22;14472;56.880;16.658;2023-05-10T13:10:16;17.10;1.00
26907;DHT22;14472;56.880;16.658;2023-05-10T13:12:42;17.20;1.00
26907;DHT22;14472;56.880;16.658;2023-05-10T13:15:08;17.10;1.00
26907;DHT22;14472;56.880;16.658;2023-05-10T13:17:34;17.20;1.00
26907;DHT22;14472;56.880;16.658;2023-05-10T13:20:00;17.10;1.00
26907;DHT22;14472;56.880;16.658;2023-05-10T13:22:26;17.10;1.00
26907;DHT22;14472;56.880;16.658;2023-05-10T13:24:51;17.10;1.00
26907;DHT22;14472;56.880;16.658;2023-05-10T13:27:17;17.00;1.00
26907;DHT22;14472;56.880;16.658;2023-05-10T13:29:43;17.00;1.00
26907;DHT22;14472;56.880;16.658;2023-05-10T13:32:08;17.00;1.00
26907;DHT22;14472;56.880;16.658;2023-05-10T13:34:34;17.00;1.00
26907;DHT22;14472;56.880;16.658;2023-05-10T13:37:01;17.20;1.00
26907;DHT22;14472;56.880;16.658;2023-05-10T13:39:27;17.20;1.00
26907;DHT22;14472;56.880;16.658;2023-05-10T13:41:52;17.20;1.00
26907;DHT22;14472;56.880;16.658;2023-05-10T13:44:20;17.20;1.00
26907;DHT22;14472;56.880;16.658;2023-05-10T13:46:46;17.30;1.00
26907;DHT22;14472;56.880;16.658;2023-05-10T13:49:11;17.40;1.00
26907;DHT22;14472;56.880;16.658;2023-05-10T13:51:37;17.40;1.00
26907;DHT22;14472;56.880;16.658;2023-05-10T13:54:03;17.40;1.00
26907;DHT22;14472;56.880;16.658;2023-05-10T13:56:29;17.50;1.00
26907;DHT22;14472;56.880;16.658;2023-05-10T13:58:56;17.50;1.00
26907;DHT22;14472;56.880;16.658;2023-05-10T14:01:22;17.60;1.00
26907;DHT22;14472;56.880;16.658;2023-05-10T14:03:48;17.60;1.00
26907;DHT22;14472;56.880;16.658;2023-05-10T14:06:14;17.60;1.00
26907;DHT22;14472;56.880;16.658;2023-05-10T14:08:40;17.70;1.00
26907;DHT22;14472;56.880;16.658;2023-05-10T14:11:06;17.60;1.00
26907;DHT22;14472;56.880;16.658;2023-05-10T14:13:32;17.50;1.00
26907;DHT22;14472;56.880;16.658;2023-05-10T14:15:58;17.50;1.00
26907;DHT22;14472;56.880;16.658;2023-05-10T14:18:26;17.40;1.00
26907;DHT22;14472;56.880;16.658;2023-05-10T14:20:52;17.50;1.00
26907;DHT22;14472;56.880;16.658;2023-05-10T14:23:19;17.40;1.00
26907;DHT22;14472;56.880;16.658;2023-05-10T14:25:50;17.40;1.00
26907;DHT22;14472;56.880;16.658;2023-05-10T14:28:16;17.40;1.00
26907;DHT22;14472;56.880;16.658;2023-05-10T14:30:43;17.40;1.00
26907;DHT22;14472;56.880;16.658;2023-05-10T14:33:09;17.40;1.00
26907;DHT22;14472;56.880;16.658;2023-05-10T14:35:35;17.40;1.00
26907;DHT22;14472;56.880;16.658;2023-05-10T14:38:02;17.40;1.00
26907;DHT22;14472;56.880;16.658;2023-05-10T14:40:29;17.40;1.00
26907;DHT22;14472;56.880;16.658;2023-05-10T14:42:55;17.40;1.00
26907;DHT22;14472;56.880;16.658;2023-05-10T14:45:21;17.30;1.00
26907;DHT22;14472;56.880;16.658;2023-05-10T14:47:48;17.40;1.00
26907;DHT22;14472;56.880;16.658;2023-05-10T14:50:14;17.40;1.00
26907;DHT22;14472;56.880;16.658;2023-05-10T14:52:40;17.40;1.00
26907;DHT22;14472;56.880;16.658;2023-05-10T14:55:07;17.50;1.00
26907;DHT22;14472;56.880;16.658;2023-05-10T14:57:33;17.50;1.00
26907;DHT22;14472;56.880;16.658;2023-05-10T14:59:58;17.40;1.00
26907;DHT22;14472;56.880;16.658;2023-05-10T15:02:27;17.50;1.00
26907;DHT22;14472;56.880;16.658;2023-05-10T15:04:53;17.50;1.00
26907;DHT22;14472;56.880;16.658;2023-05-10T15:07:19;17.40;1.00
26907;DHT22;14472;56.880;16.658;2023-05-10T15:09:45;17.40;1.00
26907;DHT22;14472;56.880;16.658;2023-05-10T15:12:11;17.40;1.00
26907;DHT22;14472;56.880;16.658;2023-05-10T15:14:37;17.30;1.00
26907;DHT22;14472;56.880;16.658;2023-05-10T15:17:03;17.40;1.00
26907;DHT22;14472;56.880;16.658;2023-05-10T15:19:29;17.40;1.00
26907;DHT22;14472;56.880;16.658;2023-05-10T15:21:55;17.40;1.00
26907;DHT22;14472;56.880;16.658;2023-05-10T15:24:21;17.40;1.00
26907;DHT22;14472;56.880;16.658;2023-05-10T15:26:47;17.40;1.00
26907;DHT22;14472;56.880;16.658;2023-05-10T15:29:13;17.40;1.00
26907;DHT22;14472;56.880;16.658;2023-05-10T15:31:49;17.30;1.00
26907;DHT22;14472;56.880;16.658;2023-05-10T15:34:16;17.30;1.00
26907;DHT22;14472;56.880;16.658;2023-05-10T15:36:41;17.30;1.00
26907;DHT22;14472;56.880;16.658;2023-05-10T15:39:07;17.30;1.00
26907;DHT22;14472;56.880;16.658;2023-05-10T15:41:35;17.30;1.00
26907;DHT22;14472;56.880;16.658;2023-05-10T15:44:01;17.30;1.00
26907;DHT22;14472;56.880;16.658;2023-05-10T15:46:30;17.30;1.00
26907;DHT22;14472;56.880;16.658;2023-05-10T15:48:57;17.20;1.00
26907;DHT22;14472;56.880;16.658;2023-05-10T15:51:24;17.20;1.00
26907;DHT22;14472;56.880;16.658;2023-05-10T15:53:50;17.20;1.00
26907;DHT22;14472;56.880;16.658;2023-05-10T15:56:16;17.10;1.00
26907;DHT22;14472;56.880;16.658;2023-05-10T15:58:42;17.10;1.00
26907;DHT22;14472;56.880;16.658;2023-05-10T16:01:09;17.10;1.00
26907;DHT22;14472;56.880;16.658;2023-05-10T16:03:36;17.00;1.00
26907;DHT22;14472;56.880;16.658;2023-05-10T16:06:02;16.90;1.00
26907;DHT22;14472;56.880;16.658;2023-05-10T16:08:28;16.90;1.00